Time;durP1;ratioP1;P1;durP2;ratioP2;P2;SDS_P1;SDS_P2;PMS_P1;PMS_P2;Temp;Humidity;BMP_temperature;BMP_pressure;BME280_temperature;BME280_humidity;BME280_pressure;Samples;Min_cycle;Max_cycle;Signal;HPM_P1;HPM_P2
2022/06/06 00:01:00;;;;;;;0.20;0.20;;;;;;;;;;5093456;28;20032;-67
2022/06/06 00:03:25;;;;;;;0.22;0.22;;;;;;;;;;5094208;28;20036;-66
2022/06/06 00:05:50;;;;;;;0.93;0.90;;;;;;;;;;5094258;28;20047;-66
2022/06/06 00:08:17;;;;;;;0.32;0.32;;;;;;;;;;5076023;28;20040;-67
2022/06/06 00:10:43;;;;;;;0.25;0.25;;;;;;;;;;5075941;28;20024;-67
2022/06/06 00:13:10;;;;;;;0.28;0.28;;;;;;;;;;5076352;28;20042;-66
2022/06/06 00:15:35;;;;;;;0.30;0.30;;;;;;;;;;5076058;28;20070;-66
2022/06/06 00:18:01;;;;;;;0.20;0.20;;;;;;;;;;5093359;28;20120;-67
2022/06/06 00:20:27;;;;;;;0.20;0.20;;;;;;;;;;5093954;28;20032;-65
2022/06/06 00:22:52;;;;;;;0.30;0.30;;;;;;;;;;5094073;28;20410;-66
2022/06/06 00:25:18;;;;;;;0.20;0.20;;;;;;;;;;5075921;28;20448;-66
2022/06/06 00:27:43;;;;;;;0.30;0.30;;;;;;;;;;5093913;28;20466;-68
2022/06/06 00:30:09;;;;;;;0.20;0.20;;;;;;;;;;5075905;28;20048;-67
2022/06/06 00:35:20;;;;;;;0.20;0.20;;;;;;;;;;5093873;28;20040;-67
2022/06/06 00:37:46;;;;;;;0.20;0.20;;;;;;;;;;5093563;28;20051;-66
2022/06/06 00:40:11;;;;;;;0.20;0.20;;;;;;;;;;5094123;28;20050;-66
2022/06/06 00:42:42;;;;;;;0.20;0.20;;;;;;;;;;5093663;28;20099;-66
2022/06/06 00:45:18;;;;;;;0.20;0.20;;;;;;;;;;5075742;28;20032;-67
2022/06/06 00:47:45;;;;;;;0.30;0.30;;;;;;;;;;5093624;28;20036;-66
2022/06/06 00:50:13;;;;;;;0.20;0.20;;;;;;;;;;5093467;28;20043;-66
2022/06/06 00:52:40;;;;;;;0.20;0.20;;;;;;;;;;5092657;28;20036;-68
2022/06/06 00:55:11;;;;;;;0.30;0.30;;;;;;;;;;5075598;28;20395;-67
2022/06/06 00:57:38;;;;;;;0.55;0.55;;;;;;;;;;5093480;28;20127;-66
2022/06/06 01:00:07;;;;;;;0.30;0.30;;;;;;;;;;5092513;28;20039;-68
2022/06/06 01:02:33;;;;;;;0.25;0.25;;;;;;;;;;5092723;28;20036;-67
2022/06/06 01:05:01;;;;;;;0.20;0.20;;;;;;;;;;5093254;28;20043;-66
2022/06/06 01:07:26;;;;;;;0.30;0.30;;;;;;;;;;5093331;28;20070;-68
2022/06/06 01:09:52;;;;;;;0.20;0.20;;;;;;;;;;5075337;28;20422;-68
2022/06/06 01:12:19;;;;;;;6.43;5.20;;;;;;;;;;5093391;28;20379;-68
2022/06/06 01:14:50;;;;;;;3.55;1.95;;;;;;;;;;5075098;28;20032;-67
2022/06/06 01:17:31;;;;;;;0.40;0.40;;;;;;;;;;5092437;28;20371;-68
2022/06/06 01:20:06;;;;;;;0.20;0.20;;;;;;;;;;5093080;28;20047;-68
2022/06/06 01:22:41;;;;;;;0.60;0.60;;;;;;;;;;5093261;28;20103;-67
2022/06/06 01:25:25;;;;;;;0.20;0.20;;;;;;;;;;5093341;28;20035;-66
2022/06/06 01:27:54;;;;;;;0.20;0.20;;;;;;;;;;5093277;28;20111;-68
2022/06/06 01:30:19;;;;;;;;;;;;;;;;;;5093600;28;20038;-68
2022/06/06 01:32:47;;;;;;;0.20;0.20;;;;;;;;;;5093048;28;20279;-67
2022/06/06 01:35:21;;;;;;;0.20;0.20;;;;;;;;;;5092883;28;20040;-69
2022/06/06 01:37:46;;;;;;;0.30;0.30;;;;;;;;;;5092896;28;20103;-68
2022/06/06 01:40:13;;;;;;;0.25;0.25;;;;;;;;;;5092762;28;20123;-67
2022/06/06 01:42:45;;;;;;;0.50;0.38;;;;;;;;;;5074532;28;20024;-66
2022/06/06 01:45:23;;;;;;;0.20;0.20;;;;;;;;;;5074964;28;20060;-68
2022/06/06 01:47:54;;;;;;;0.10;0.10;;;;;;;;;;5092860;28;20032;-67
2022/06/06 01:50:21;;;;;;;0.20;0.20;;;;;;;;;;5074132;28;20043;-66
2022/06/06 01:52:59;;;;;;;0.10;0.10;;;;;;;;;;5092589;28;20103;-67
2022/06/06 01:55:25;;;;;;;0.20;0.20;;;;;;;;;;5092844;28;20131;-67
2022/06/06 01:57:52;;;;;;;0.52;0.52;;;;;;;;;;5092640;28;20093;-67
2022/06/06 02:00:19;;;;;;;0.20;0.20;;;;;;;;;;5092429;28;20046;-66
2022/06/06 02:02:45;;;;;;;0.20;0.20;;;;;;;;;;5091588;28;20035;-66
2022/06/06 02:05:11;;;;;;;11.50;6.05;;;;;;;;;;5092578;28;20111;-67
2022/06/06 02:07:38;;;;;;;0.20;0.20;;;;;;;;;;5092324;28;20024;-67
2022/06/06 02:10:05;;;;;;;0.30;0.30;;;;;;;;;;5074522;28;20044;-67
2022/06/06 02:12:30;;;;;;;0.20;0.20;;;;;;;;;;5092006;28;20514;-67
2022/06/06 02:14:56;;;;;;;0.93;0.77;;;;;;;;;;5092445;28;20048;-67
2022/06/06 02:17:22;;;;;;;0.28;0.28;;;;;;;;;;5074458;28;20032;-67
2022/06/06 02:19:48;;;;;;;0.20;0.20;;;;;;;;;;5073711;28;20502;-67
2022/06/06 02:22:13;;;;;;;0.20;0.20;;;;;;;;;;5092110;28;20055;-67
2022/06/06 02:24:39;;;;;;;0.20;0.20;;;;;;;;;;5092254;28;20035;-67
2022/06/06 02:27:05;;;;;;;0.20;0.20;;;;;;;;;;5073944;28;20119;-67
2022/06/06 02:29:30;;;;;;;0.20;0.20;;;;;;;;;;5092147;28;20028;-67
2022/06/06 02:31:56;;;;;;;1.38;0.75;;;;;;;;;;5073855;28;20040;-66
2022/06/06 02:34:21;;;;;;;0.20;0.20;;;;;;;;;;5092125;28;20433;-67
2022/06/06 02:36:47;;;;;;;0.20;0.20;;;;;;;;;;5092009;28;20024;-66
2022/06/06 02:39:13;;;;;;;0.15;0.15;;;;;;;;;;5091951;28;20028;-67
2022/06/06 02:41:39;;;;;;;0.20;0.20;;;;;;;;;;5092021;28;20115;-67
2022/06/06 02:44:04;;;;;;;1.05;1.05;;;;;;;;;;5092251;28;20507;-67
2022/06/06 02:46:30;;;;;;;0.20;0.20;;;;;;;;;;5073003;28;20032;-68
2022/06/06 02:48:56;;;;;;;0.20;0.20;;;;;;;;;;5073986;28;20036;-67
2022/06/06 02:51:21;;;;;;;0.20;0.20;;;;;;;;;;5091863;28;20111;-67
2022/06/06 02:53:49;;;;;;;0.20;0.20;;;;;;;;;;5091596;28;20063;-67
2022/06/06 02:56:14;;;;;;;0.20;0.20;;;;;;;;;;5091967;28;20039;-67
2022/06/06 02:58:40;;;;;;;0.20;0.20;;;;;;;;;;5091856;28;20032;-69
2022/06/06 03:01:07;;;;;;;0.20;0.20;;;;;;;;;;5091002;28;20042;-67
2022/06/06 03:03:33;;;;;;;0.20;0.20;;;;;;;;;;5086703;28;20028;-68
2022/06/06 03:06:05;;;;;;;0.20;0.20;;;;;;;;;;5069175;28;20571;-67
2022/06/06 03:08:49;;;;;;;0.20;0.20;;;;;;;;;;5087482;28;20127;-67
2022/06/06 03:11:14;;;;;;;0.20;0.20;;;;;;;;;;5087510;28;20032;-67
2022/06/06 03:13:50;;;;;;;0.20;0.20;;;;;;;;;;5069649;28;20054;-66
2022/06/06 03:22:11;;;;;;;0.20;0.20;;;;;;;;;;5088033;28;20044;-67
2022/06/06 03:24:43;;;;;;;0.20;0.20;;;;;;;;;;5089588;28;20024;-66
2022/06/06 03:27:28;;;;;;;0.20;0.20;;;;;;;;;;5090711;28;20085;-67
2022/06/06 03:29:56;;;;;;;0.20;0.20;;;;;;;;;;5090808;28;20175;-67
2022/06/06 03:32:27;;;;;;;0.20;0.20;;;;;;;;;;5090020;28;20054;-66
2022/06/06 03:35:04;;;;;;;0.20;0.20;;;;;;;;;;5057073;28;20055;-67
2022/06/06 03:37:34;;;;;;;0.20;0.20;;;;;;;;;;5099847;28;20048;-67
2022/06/06 03:40:11;;;;;;;0.20;0.20;;;;;;;;;;5101234;28;20054;-67
2022/06/06 03:42:39;;;;;;;0.20;0.20;;;;;;;;;;5090651;28;20562;-66
2022/06/06 03:45:17;;;;;;;0.65;0.65;;;;;;;;;;5056106;28;20054;-68
2022/06/06 03:47:43;;;;;;;1.48;1.38;;;;;;;;;;5056316;28;20040;-68
2022/06/06 03:50:17;;;;;;;3.83;1.55;;;;;;;;;;5054905;28;20395;-68
2022/06/06 03:52:43;;;;;;;0.20;0.20;;;;;;;;;;5090257;28;20123;-66
2022/06/06 03:55:38;;;;;;;0.20;0.20;;;;;;;;;;5090494;28;20107;-65
2022/06/06 03:58:04;;;;;;;0.30;0.30;;;;;;;;;;5072739;28;20146;-67
2022/06/06 04:00:32;;;;;;;1.45;1.20;;;;;;;;;;5070263;28;20150;-66
2022/06/06 04:02:59;;;;;;;0.30;0.30;;;;;;;;;;5090376;28;20039;-67
2022/06/06 04:05:24;;;;;;;0.40;0.40;;;;;;;;;;5090688;28;20036;-68
2022/06/06 04:07:50;;;;;;;0.20;0.20;;;;;;;;;;5072586;28;20093;-67
2022/06/06 04:10:17;;;;;;;0.20;0.20;;;;;;;;;;5089940;28;20468;-67
2022/06/06 04:12:42;;;;;;;1.00;0.55;;;;;;;;;;5073638;28;20028;-67
2022/06/06 04:15:08;;;;;;;0.57;0.57;;;;;;;;;;5090184;28;20039;-66
2022/06/06 04:17:42;;;;;;;0.30;0.30;;;;;;;;;;5090164;28;20047;-66
2022/06/06 04:20:14;;;;;;;0.20;0.20;;;;;;;;;;5089258;28;20039;-67
2022/06/06 04:22:57;;;;;;;1.23;0.80;;;;;;;;;;5089308;28;20075;-68
2022/06/06 04:25:23;;;;;;;0.20;0.20;;;;;;;;;;5090287;28;20032;-66
2022/06/06 04:27:51;;;;;;;0.20;0.20;;;;;;;;;;5088946;28;20074;-67
2022/06/06 04:30:23;;;;;;;3.85;1.67;;;;;;;;;;5071958;28;20479;-67
2022/06/06 04:32:53;;;;;;;0.65;0.55;;;;;;;;;;5089374;28;20110;-68
2022/06/06 04:35:19;;;;;;;0.20;0.20;;;;;;;;;;5070684;28;20044;-67
2022/06/06 04:37:56;;;;;;;1.05;0.65;;;;;;;;;;5087632;28;20074;-68
2022/06/06 04:40:22;;;;;;;0.30;0.30;;;;;;;;;;5086835;28;20044;-68
2022/06/06 04:42:52;;;;;;;8.68;1.33;;;;;;;;;;5087760;28;20050;-67
2022/06/06 04:45:24;;;;;;;1.52;0.85;;;;;;;;;;5068999;28;20040;-66
2022/06/06 04:47:50;;;;;;;5.53;2.60;;;;;;;;;;5068733;28;20372;-67
2022/06/06 04:50:18;;;;;;;0.22;0.22;;;;;;;;;;5081194;28;20032;-67
2022/06/06 04:52:48;;;;;;;1.58;0.82;;;;;;;;;;5080919;28;20072;-67
2022/06/06 04:55:15;;;;;;;2.22;1.52;;;;;;;;;;5084143;28;20081;-67
2022/06/06 04:57:43;;;;;;;3.03;1.85;;;;;;;;;;5087439;28;20039;-67
2022/06/06 05:00:10;;;;;;;0.95;0.77;;;;;;;;;;5086289;28;20028;-67
2022/06/06 05:02:36;;;;;;;0.20;0.20;;;;;;;;;;5082620;28;20036;-67
2022/06/06 05:05:02;;;;;;;1.67;1.00;;;;;;;;;;5078101;28;20032;-67
2022/06/06 05:07:46;;;;;;;0.22;0.22;;;;;;;;;;5068400;28;20033;-66
2022/06/06 05:10:24;;;;;;;4.95;2.72;;;;;;;;;;5069243;28;20372;-67
2022/06/06 05:12:53;;;;;;;2.05;1.45;;;;;;;;;;5069291;28;20056;-67
2022/06/06 05:15:34;;;;;;;0.20;0.20;;;;;;;;;;5050799;28;20044;-67
2022/06/06 05:18:16;;;;;;;7.55;1.80;;;;;;;;;;5074145;28;20064;-67
2022/06/06 05:21:00;;;;;;;4.88;2.38;;;;;;;;;;5086827;28;20087;-67
2022/06/06 05:23:44;;;;;;;0.20;0.20;;;;;;;;;;5089568;28;20032;-67
2022/06/06 05:26:27;;;;;;;0.45;0.45;;;;;;;;;;5086945;28;20111;-67
2022/06/06 05:29:11;;;;;;;2.05;1.45;;;;;;;;;;5087535;28;20032;-67
2022/06/06 05:31:49;;;;;;;0.73;0.50;;;;;;;;;;5069148;28;20066;-66
2022/06/06 05:34:20;;;;;;;1.48;1.15;;;;;;;;;;5087308;28;20495;-67
2022/06/06 05:36:55;;;;;;;0.20;0.20;;;;;;;;;;5069290;28;20489;-67
2022/06/06 05:39:20;;;;;;;3.53;2.38;;;;;;;;;;5069733;28;20395;-66
2022/06/06 05:41:46;;;;;;;1.90;1.52;;;;;;;;;;5089104;28;20035;-65
2022/06/06 05:44:20;;;;;;;3.00;1.27;;;;;;;;;;5088566;28;20043;-66
2022/06/06 05:47:04;;;;;;;6.40;1.58;;;;;;;;;;5088226;28;20118;-65
2022/06/06 05:49:48;;;;;;;0.20;0.20;;;;;;;;;;5089080;28;20112;-65
2022/06/06 05:52:27;;;;;;;0.20;0.20;;;;;;;;;;5088771;28;20387;-65
2022/06/06 05:54:52;;;;;;;;;;;;;;;;;;5089406;28;20849;-66
2022/06/06 05:57:36;;;;;;;0.20;0.20;;;;;;;;;;5070784;28;19908;-66
2022/06/06 06:00:07;;;;;;;0.20;0.20;;;;;;;;;;5088294;28;20506;-66
2022/06/06 06:02:47;;;;;;;0.20;0.20;;;;;;;;;;5088566;28;20032;-66
2022/06/06 06:05:21;;;;;;;0.20;0.20;;;;;;;;;;5088325;28;20456;-66
2022/06/06 06:07:50;;;;;;;0.20;0.20;;;;;;;;;;5070477;28;20107;-66
2022/06/06 06:10:19;;;;;;;0.20;0.20;;;;;;;;;;5069983;28;20035;-67
2022/06/06 06:12:47;;;;;;;15.02;2.05;;;;;;;;;;5088574;28;20028;-67
2022/06/06 06:15:33;;;;;;;1.10;1.00;;;;;;;;;;5088591;28;20062;-66
2022/06/06 06:17:59;;;;;;;0.22;0.22;;;;;;;;;;5088231;28;20025;-66
2022/06/06 06:20:30;;;;;;;0.20;0.20;;;;;;;;;;5088068;28;20476;-66
2022/06/06 06:22:57;;;;;;;0.20;0.20;;;;;;;;;;5087914;28;20142;-65
2022/06/06 06:25:24;;;;;;;0.20;0.20;;;;;;;;;;5088405;28;20040;-66
2022/06/06 06:27:49;;;;;;;0.20;0.20;;;;;;;;;;5084135;28;20040;-65
2022/06/06 06:30:15;;;;;;;0.20;0.20;;;;;;;;;;5078697;28;20564;-66
2022/06/06 06:32:50;;;;;;;0.20;0.20;;;;;;;;;;5069739;28;20039;-65
2022/06/06 06:35:26;;;;;;;0.20;0.20;;;;;;;;;;5087979;28;20082;-66
2022/06/06 06:37:54;;;;;;;0.20;0.20;;;;;;;;;;5087783;28;20115;-64
2022/06/06 06:40:45;;;;;;;0.20;0.20;;;;;;;;;;5088104;28;20036;-65
2022/06/06 06:43:33;;;;;;;0.30;0.30;;;;;;;;;;5088383;28;20130;-66
2022/06/06 06:46:03;;;;;;;0.22;0.22;;;;;;;;;;5088068;28;20046;-66
2022/06/06 06:48:36;;;;;;;0.25;0.25;;;;;;;;;;5087796;28;20028;-66
2022/06/06 06:51:10;;;;;;;0.63;0.63;;;;;;;;;;5088103;28;20235;-65
2022/06/06 06:53:54;;;;;;;27.05;3.90;;;;;;;;;;5088161;28;20032;-66
2022/06/06 06:56:20;;;;;;;0.20;0.20;;;;;;;;;;5087797;28;20071;-66
2022/06/06 06:58:53;;;;;;;0.20;0.20;;;;;;;;;;5086553;28;20039;-65
2022/06/06 07:01:39;;;;;;;0.45;0.45;;;;;;;;;;5082185;28;20055;-66
2022/06/06 07:10:06;;;;;;;0.30;0.30;;;;;;;;;;5090741;28;20039;-65
2022/06/06 07:12:41;;;;;;;0.43;0.43;;;;;;;;;;5086798;28;20480;-67
2022/06/06 07:15:18;;;;;;;0.30;0.30;;;;;;;;;;5073078;28;20032;-66
2022/06/06 07:17:46;;;;;;;0.30;0.30;;;;;;;;;;5089567;28;20110;-66
2022/06/06 07:20:13;;;;;;;0.30;0.30;;;;;;;;;;5083446;28;20035;-66
2022/06/06 07:25:28;;;;;;;1.23;1.13;;;;;;;;;;5087632;28;20041;-67
2022/06/06 07:27:54;;;;;;;0.20;0.20;;;;;;;;;;5078680;28;20035;-68
2022/06/06 07:30:21;;;;;;;0.30;0.30;;;;;;;;;;5088860;28;20118;-66
2022/06/06 07:33:05;;;;;;;0.32;0.32;;;;;;;;;;5088139;28;20073;-67
2022/06/06 07:35:50;;;;;;;2.05;1.25;;;;;;;;;;5090661;28;20040;-68
2022/06/06 07:38:16;;;;;;;0.40;0.40;;;;;;;;;;5075432;28;20127;-65
2022/06/06 07:40:55;;;;;;;0.30;0.30;;;;;;;;;;5087080;28;20135;-66
2022/06/06 07:43:35;;;;;;;0.30;0.30;;;;;;;;;;5069199;28;20111;-65
2022/06/06 07:46:10;;;;;;;0.30;0.30;;;;;;;;;;5087641;28;20032;-66
2022/06/06 07:48:54;;;;;;;0.30;0.30;;;;;;;;;;5089777;28;20130;-66
2022/06/06 07:51:20;;;;;;;0.30;0.30;;;;;;;;;;5071760;28;20395;-65
2022/06/06 07:53:48;;;;;;;0.77;0.77;;;;;;;;;;5092572;28;20519;-66
2022/06/06 07:56:26;;;;;;;0.35;0.35;;;;;;;;;;5089125;28;20036;-66
2022/06/06 07:58:58;;;;;;;0.50;0.50;;;;;;;;;;5087434;28;20071;-66
2022/06/06 08:01:27;;;;;;;1.55;1.38;;;;;;;;;;5080684;28;20064;-66
2022/06/06 08:04:01;;;;;;;0.30;0.30;;;;;;;;;;5086772;28;20033;-65
2022/06/06 08:06:33;;;;;;;0.35;0.35;;;;;;;;;;5087219;28;20089;-66
2022/06/06 08:08:58;;;;;;;0.38;0.38;;;;;;;;;;5089512;28;20028;-68
2022/06/06 08:11:40;;;;;;;1.05;0.90;;;;;;;;;;5089509;28;20493;-65
2022/06/06 08:14:27;;;;;;;0.32;0.32;;;;;;;;;;5089458;28;20043;-66
2022/06/06 08:17:12;;;;;;;0.30;0.30;;;;;;;;;;5090375;28;20067;-67
2022/06/06 08:19:40;;;;;;;0.60;0.60;;;;;;;;;;5089702;28;20134;-66
2022/06/06 08:22:06;;;;;;;5.97;1.58;;;;;;;;;;5089361;28;20036;-64
2022/06/06 08:24:39;;;;;;;0.30;0.30;;;;;;;;;;5071789;28;20034;-67
2022/06/06 08:27:06;;;;;;;0.82;0.82;;;;;;;;;;5089364;28;20033;-66
2022/06/06 08:29:35;;;;;;;0.38;0.38;;;;;;;;;;5089371;28;20064;-67
2022/06/06 08:32:02;;;;;;;0.60;0.60;;;;;;;;;;5089465;28;20039;-66
2022/06/06 08:34:27;;;;;;;0.40;0.40;;;;;;;;;;5089410;28;20031;-67
2022/06/06 08:37:13;;;;;;;0.50;0.50;;;;;;;;;;5071476;28;20044;-66
2022/06/06 08:39:58;;;;;;;1.20;1.10;;;;;;;;;;5089218;28;20384;-66
2022/06/06 08:42:23;;;;;;;0.57;0.57;;;;;;;;;;5065336;28;20432;-66
2022/06/06 08:45:08;;;;;;;0.50;0.50;;;;;;;;;;5075101;28;20456;-66
2022/06/06 08:47:44;;;;;;;0.55;0.55;;;;;;;;;;5079746;28;20039;-66
2022/06/06 08:53:14;;;;;;;0.50;0.50;;;;;;;;;;5087436;28;20532;-65
2022/06/06 08:55:58;;;;;;;0.40;0.40;;;;;;;;;;5069222;28;20032;-65
2022/06/06 08:58:40;;;;;;;0.30;0.30;;;;;;;;;;5069361;28;20115;-68
2022/06/06 09:01:24;;;;;;;0.60;0.60;;;;;;;;;;5079052;28;20562;-65
2022/06/06 09:04:05;;;;;;;0.60;0.60;;;;;;;;;;5087532;28;20044;-66
2022/06/06 09:06:43;;;;;;;6.32;2.08;;;;;;;;;;5062787;28;20057;-66
2022/06/06 09:09:24;;;;;;;0.43;0.43;;;;;;;;;;5081460;28;20036;-66
2022/06/06 09:12:08;;;;;;;0.52;0.52;;;;;;;;;;5088444;28;20047;-66
2022/06/06 09:14:57;;;;;;;0.70;0.70;;;;;;;;;;5088972;28;20048;-66
2022/06/06 09:17:22;;;;;;;2.03;1.80;;;;;;;;;;5087679;28;20047;-65
2022/06/06 09:20:14;;;;;;;9.07;3.40;;;;;;;;;;5088546;28;20032;-65
2022/06/06 09:22:39;;;;;;;0.40;0.40;;;;;;;;;;5084800;28;20103;-65
2022/06/06 09:25:05;;;;;;;1.88;0.90;;;;;;;;;;5089311;28;20418;-65
2022/06/06 09:27:49;;;;;;;4.57;1.85;;;;;;;;;;5088130;28;20028;-66
2022/06/06 09:30:27;;;;;;;7.70;1.73;;;;;;;;;;5088553;28;20039;-65
2022/06/06 09:33:19;;;;;;;1.40;1.00;;;;;;;;;;5088974;28;20032;-65
2022/06/06 09:35:56;;;;;;;4.57;2.20;;;;;;;;;;5089189;28;20387;-65
2022/06/06 09:38:34;;;;;;;0.85;0.82;;;;;;;;;;5088897;28;20055;-65
2022/06/06 09:41:09;;;;;;;1.63;1.48;;;;;;;;;;5088801;28;20089;-64
2022/06/06 09:43:35;;;;;;;4.72;2.42;;;;;;;;;;5070444;28;20081;-66
2022/06/06 09:46:19;;;;;;;0.50;0.50;;;;;;;;;;5088662;28;20036;-65
2022/06/06 09:49:03;;;;;;;9.05;2.25;;;;;;;;;;5086981;28;20028;-65
2022/06/06 09:51:50;;;;;;;1.75;1.33;;;;;;;;;;5086796;28;20119;-64
2022/06/06 09:59:46;;;;;;;3.28;1.80;;;;;;;;;;5078207;28;20062;-65
2022/06/06 10:02:28;;;;;;;2.67;1.45;;;;;;;;;;5086249;28;20036;-66
2022/06/06 10:04:57;;;;;;;0.30;0.30;;;;;;;;;;5087024;28;20563;-65
2022/06/06 10:07:26;;;;;;;10.32;2.30;;;;;;;;;;5087907;28;20039;-66
2022/06/06 10:10:00;;;;;;;3.17;1.00;;;;;;;;;;5088415;28;20131;-67
2022/06/06 10:12:45;;;;;;;0.30;0.30;;;;;;;;;;5086979;28;20036;-67
2022/06/06 10:15:16;;;;;;;0.60;0.50;;;;;;;;;;5087039;28;20475;-66
2022/06/06 10:18:00;;;;;;;6.72;2.85;;;;;;;;;;5087452;28;20498;-66
2022/06/06 10:20:44;;;;;;;8.02;1.63;;;;;;;;;;5087110;28;20058;-66
2022/06/06 10:23:28;;;;;;;0.43;0.35;;;;;;;;;;5087602;28;20024;-65
2022/06/06 10:25:53;;;;;;;7.78;2.42;;;;;;;;;;5087375;28;20040;-66
2022/06/06 10:28:22;;;;;;;5.90;2.30;;;;;;;;;;5087215;28;20087;-65
2022/06/06 10:31:06;;;;;;;6.72;2.50;;;;;;;;;;5086091;28;20031;-66
2022/06/06 10:33:50;;;;;;;3.00;1.58;;;;;;;;;;5089626;28;20032;-66
2022/06/06 10:36:18;;;;;;;9.50;1.63;;;;;;;;;;5089578;28;20039;-65
2022/06/06 10:39:03;;;;;;;4.50;1.70;;;;;;;;;;5090723;28;20170;-66
2022/06/06 10:41:46;;;;;;;1.73;1.02;;;;;;;;;;5090259;28;20036;-66
2022/06/06 10:44:16;;;;;;;8.25;1.48;;;;;;;;;;5091146;28;20064;-70
2022/06/06 10:46:47;;;;;;;3.80;1.50;;;;;;;;;;5056525;28;20036;-70
2022/06/06 10:49:13;;;;;;;5.82;2.05;;;;;;;;;;5071580;28;20020;-71
2022/06/06 10:51:51;;;;;;;15.35;2.38;;;;;;;;;;5064680;28;20119;-70
2022/06/06 10:54:35;;;;;;;2.97;1.27;;;;;;;;;;5053265;28;20125;-70
2022/06/06 10:57:06;;;;;;;2.13;1.13;;;;;;;;;;5058795;28;20041;-71
2022/06/06 10:59:37;;;;;;;8.25;2.30;;;;;;;;;;5053544;28;20123;-68
2022/06/06 11:02:21;;;;;;;4.45;2.33;;;;;;;;;;5073140;28;20085;-70
2022/06/06 11:04:46;;;;;;;5.78;1.40;;;;;;;;;;5072961;28;20391;-68
2022/06/06 11:07:25;;;;;;;1.75;1.05;;;;;;;;;;5091058;28;20039;-69
2022/06/06 11:09:51;;;;;;;;;;;;;;;;;;5073343;28;20050;-69
2022/06/06 11:12:16;;;;;;;4.63;1.75;;;;;;;;;;5073016;28;19912;-69
2022/06/06 11:14:46;;;;;;;0.95;0.88;;;;;;;;;;5073500;28;20036;-67
2022/06/06 11:17:30;;;;;;;4.57;1.38;;;;;;;;;;5056187;28;20043;-69
2022/06/06 11:19:58;;;;;;;2.75;1.48;;;;;;;;;;5090975;28;20032;-69
2022/06/06 11:22:31;;;;;;;8.02;1.60;;;;;;;;;;5073045;28;20116;-68
2022/06/06 11:25:09;;;;;;;0.90;0.65;;;;;;;;;;5059402;28;20068;-70
2022/06/06 11:27:53;;;;;;;6.50;2.20;;;;;;;;;;5090537;28;20047;-69
2022/06/06 11:30:20;;;;;;;3.33;1.10;;;;;;;;;;5089245;28;20032;-69
2022/06/06 11:32:56;;;;;;;9.20;2.00;;;;;;;;;;5073282;28;20515;-69
2022/06/06 11:35:40;;;;;;;1.95;1.33;;;;;;;;;;5056507;28;20035;-71
2022/06/06 11:38:25;;;;;;;5.35;1.45;;;;;;;;;;5072411;28;20032;-70
2022/06/06 11:41:09;;;;;;;3.97;1.88;;;;;;;;;;5090529;28;20403;-72
2022/06/06 11:43:50;;;;;;;3.10;1.85;;;;;;;;;;5072240;28;20032;-70
2022/06/06 11:46:17;;;;;;;1.58;1.13;;;;;;;;;;5090397;28;20032;-69
2022/06/06 11:48:52;;;;;;;8.77;1.85;;;;;;;;;;5055653;28;20040;-71
2022/06/06 11:51:20;;;;;;;1.08;0.40;;;;;;;;;;5055677;28;20032;-68
2022/06/06 11:54:05;;;;;;;11.65;2.15;;;;;;;;;;5090475;28;20118;-69
2022/06/06 11:56:31;;;;;;;15.30;3.25;;;;;;;;;;5088023;28;20056;-70
2022/06/06 11:58:59;;;;;;;2.03;0.90;;;;;;;;;;5079905;28;20039;-69
2022/06/06 12:01:37;;;;;;;2.97;1.60;;;;;;;;;;5069712;28;20048;-67
2022/06/06 12:04:18;;;;;;;8.23;2.28;;;;;;;;;;5070338;28;20036;-67
2022/06/06 12:07:03;;;;;;;5.05;2.10;;;;;;;;;;5060468;28;20109;-67
2022/06/06 12:09:28;;;;;;;5.43;1.50;;;;;;;;;;5082315;28;20048;-67
2022/06/06 12:11:59;;;;;;;6.63;2.00;;;;;;;;;;5088566;28;20368;-67
2022/06/06 12:14:37;;;;;;;6.65;1.92;;;;;;;;;;5089446;28;20028;-66
2022/06/06 12:17:17;;;;;;;5.05;2.28;;;;;;;;;;5072382;28;20032;-67
2022/06/06 12:19:42;;;;;;;0.68;0.68;;;;;;;;;;5089884;28;20592;-67
2022/06/06 12:22:11;;;;;;;2.53;1.45;;;;;;;;;;5070652;28;20103;-66
2022/06/06 12:24:55;;;;;;;4.75;1.40;;;;;;;;;;5087649;28;20036;-67
2022/06/06 12:27:27;;;;;;;3.55;1.58;;;;;;;;;;5078383;28;20037;-67
2022/06/06 12:30:12;;;;;;;5.57;1.58;;;;;;;;;;5069569;28;20029;-66
2022/06/06 12:32:58;;;;;;;4.57;2.63;;;;;;;;;;5058730;28;20468;-66
2022/06/06 12:35:36;;;;;;;1.23;1.05;;;;;;;;;;5069392;28;20064;-67
2022/06/06 12:38:07;;;;;;;3.53;1.30;;;;;;;;;;5069422;28;20040;-66
2022/06/06 12:40:52;;;;;;;5.45;1.42;;;;;;;;;;5069797;28;20063;-67
2022/06/06 12:43:37;;;;;;;6.75;1.83;;;;;;;;;;5069203;28;20036;-66
2022/06/06 12:46:21;;;;;;;0.60;0.60;;;;;;;;;;5069082;28;20112;-67
2022/06/06 12:48:56;;;;;;;2.90;1.35;;;;;;;;;;5069860;28;20455;-68
2022/06/06 12:51:30;;;;;;;3.58;2.13;;;;;;;;;;5071892;28;20067;-66
2022/06/06 12:53:59;;;;;;;15.20;2.47;;;;;;;;;;5089258;28;20039;-66
2022/06/06 12:56:25;;;;;;;1.40;0.90;;;;;;;;;;5082976;28;20071;-68
2022/06/06 12:59:13;;;;;;;7.65;2.50;;;;;;;;;;5076558;28;20079;-69
2022/06/06 13:01:56;;;;;;;3.13;1.02;;;;;;;;;;5069014;28;20037;-68
2022/06/06 13:04:22;;;;;;;1.38;1.38;;;;;;;;;;5079453;28;20402;-69
2022/06/06 13:07:00;;;;;;;10.38;1.67;;;;;;;;;;5089371;28;20023;-67
2022/06/06 13:09:28;;;;;;;3.67;1.67;;;;;;;;;;5086310;28;20324;-68
2022/06/06 13:12:06;;;;;;;13.40;2.60;;;;;;;;;;5069335;28;20043;-67
2022/06/06 13:14:38;;;;;;;0.65;0.65;;;;;;;;;;5074233;28;20032;-69
2022/06/06 13:17:03;;;;;;;0.82;0.50;;;;;;;;;;5089146;28;20123;-69
2022/06/06 13:19:29;;;;;;;0.63;0.60;;;;;;;;;;5083434;28;20107;-69
2022/06/06 13:22:00;;;;;;;2.03;1.02;;;;;;;;;;5080796;28;20458;-68
2022/06/06 13:24:28;;;;;;;6.15;1.35;;;;;;;;;;5089767;28;20159;-69
2022/06/06 13:26:55;;;;;;;4.20;1.13;;;;;;;;;;5088851;28;20093;-68
2022/06/06 13:29:32;;;;;;;2.45;1.08;;;;;;;;;;5088246;28;20532;-68
2022/06/06 13:32:16;;;;;;;2.08;0.70;;;;;;;;;;5088737;28;20479;-66
2022/06/06 13:35:00;;;;;;;0.77;0.77;;;;;;;;;;5070908;28;20032;-67
2022/06/06 13:37:35;;;;;;;4.15;1.33;;;;;;;;;;5070863;28;20040;-67
2022/06/06 13:40:27;;;;;;;6.78;2.03;;;;;;;;;;5087681;28;20106;-68
2022/06/06 13:43:15;;;;;;;3.60;1.48;;;;;;;;;;5088381;28;20533;-66
2022/06/06 13:46:07;;;;;;;0.77;0.77;;;;;;;;;;5088439;28;20050;-67
2022/06/06 13:48:32;;;;;;;4.47;1.90;;;;;;;;;;5088854;28;20394;-73
2022/06/06 13:51:01;;;;;;;33.75;2.40;;;;;;;;;;5088790;28;20103;-82
2022/06/06 13:53:36;;;;;;;3.03;1.55;;;;;;;;;;5070932;28;20074;-77
2022/06/06 13:56:12;;;;;;;0.52;0.52;;;;;;;;;;5088627;28;20530;-82
2022/06/06 13:58:47;;;;;;;4.32;2.17;;;;;;;;;;5089144;28;20422;-71
2022/06/06 14:01:34;;;;;;;4.50;1.35;;;;;;;;;;5088541;28;20086;-70
2022/06/06 14:04:08;;;;;;;6.63;2.60;;;;;;;;;;5067954;28;20093;-72
2022/06/06 14:06:48;;;;;;;5.97;2.42;;;;;;;;;;5088211;28;20101;-71
2022/06/06 14:09:15;;;;;;;7.00;1.98;;;;;;;;;;5070468;28;20040;-71
2022/06/06 14:11:51;;;;;;;6.35;1.90;;;;;;;;;;5088522;28;20086;-69
2022/06/06 14:14:18;;;;;;;6.78;2.42;;;;;;;;;;5065435;28;20036;-69
2022/06/06 14:16:45;;;;;;;7.85;2.08;;;;;;;;;;5068418;28;20040;-69
2022/06/06 14:19:13;;;;;;;13.40;2.50;;;;;;;;;;5071001;28;20036;-67
2022/06/06 14:21:46;;;;;;;5.05;2.35;;;;;;;;;;5058310;28;20055;-70
2022/06/06 14:24:16;;;;;;;1.42;1.20;;;;;;;;;;5069308;28;20039;-69
2022/06/06 14:26:48;;;;;;;2.13;1.13;;;;;;;;;;5074447;28;20039;-68
2022/06/06 14:29:21;;;;;;;4.82;1.80;;;;;;;;;;5087976;28;20063;-70
2022/06/06 14:31:54;;;;;;;4.32;2.25;;;;;;;;;;5087853;28;20032;-70
2022/06/06 14:34:40;;;;;;;4.85;1.90;;;;;;;;;;5087643;28;20399;-70
2022/06/06 14:37:07;;;;;;;3.83;1.33;;;;;;;;;;5087614;28;20134;-70
2022/06/06 14:39:33;;;;;;;1.48;1.02;;;;;;;;;;5082418;28;20036;-69
2022/06/06 14:42:02;;;;;;;1.67;1.20;;;;;;;;;;5076708;28;20036;-69
2022/06/06 14:44:30;;;;;;;9.98;3.03;;;;;;;;;;5067926;28;20028;-70
2022/06/06 14:47:05;;;;;;;7.77;2.17;;;;;;;;;;5072273;28;20025;-70
2022/06/06 14:49:33;;;;;;;14.85;2.72;;;;;;;;;;5088462;28;20066;-68
2022/06/06 14:52:07;;;;;;;8.80;2.33;;;;;;;;;;5069887;28;20036;-71
2022/06/06 14:54:32;;;;;;;2.10;0.70;;;;;;;;;;5072209;28;20048;-70
2022/06/06 14:57:01;;;;;;;0.45;0.45;;;;;;;;;;5049765;28;20037;-69
2022/06/06 14:59:32;;;;;;;7.03;1.70;;;;;;;;;;5068053;28;20119;-71
2022/06/06 15:02:17;;;;;;;7.30;2.72;;;;;;;;;;5050005;28;20040;-70
2022/06/06 15:04:44;;;;;;;14.38;2.20;;;;;;;;;;5067918;28;20064;-73
2022/06/06 15:07:10;;;;;;;5.80;2.08;;;;;;;;;;5051089;28;20387;-71
2022/06/06 15:09:36;;;;;;;14.43;1.80;;;;;;;;;;5050884;28;20455;-72
2022/06/06 15:12:02;;;;;;;5.45;1.45;;;;;;;;;;5049927;28;20489;-72
2022/06/06 15:14:35;;;;;;;8.38;2.35;;;;;;;;;;5067623;28;20032;-76
2022/06/06 15:17:02;;;;;;;7.68;2.13;;;;;;;;;;5067727;28;20040;-72
2022/06/06 15:19:33;;;;;;;6.90;2.45;;;;;;;;;;5060245;28;20036;-72
2022/06/06 15:22:00;;;;;;;3.53;1.52;;;;;;;;;;5089277;28;20032;-73
2022/06/06 15:24:33;;;;;;;14.90;1.55;;;;;;;;;;5090976;28;20479;-73
2022/06/06 15:27:06;;;;;;;1.00;0.85;;;;;;;;;;5073471;28;20040;-71
2022/06/06 15:29:37;;;;;;;4.10;1.65;;;;;;;;;;5090979;28;20040;-73
2022/06/06 15:32:32;;;;;;;5.13;1.45;;;;;;;;;;5091605;28;20032;-72
2022/06/06 15:35:00;;;;;;;7.18;1.30;;;;;;;;;;5069819;28;20040;-72
2022/06/06 15:37:35;;;;;;;4.38;1.65;;;;;;;;;;5090813;28;20073;-71
2022/06/06 15:40:00;;;;;;;2.40;1.02;;;;;;;;;;5090532;28;20028;-71
2022/06/06 15:42:26;;;;;;;4.28;1.40;;;;;;;;;;5091138;28;20025;-72